createdAt,value
2018-12-28T00:00:35.615Z,7.30
2018-12-28T00:01:35.763Z,7.30
2018-12-28T00:02:35.908Z,7.30
2018-12-28T00:03:36.050Z,8.20
2018-12-28T00:04:36.193Z,7.60
2018-12-28T00:05:36.338Z,7.50
2018-12-28T00:06:36.491Z,7.60
2018-12-28T00:07:36.636Z,7.60
2018-12-28T00:08:36.777Z,7.90
2018-12-28T00:09:36.919Z,8.00
2018-12-28T00:10:37.067Z,8.00
2018-12-28T00:11:37.209Z,7.60
2018-12-28T00:12:37.355Z,7.80
2018-12-28T00:13:37.502Z,7.50
2018-12-28T00:14:37.646Z,7.50
2018-12-28T00:15:37.786Z,8.70
2018-12-28T00:16:37.933Z,8.10
2018-12-28T00:17:38.077Z,8.70
2018-12-28T00:18:38.218Z,8.30
2018-12-28T00:19:38.361Z,8.50
2018-12-28T00:20:38.505Z,8.80
2018-12-28T00:21:38.651Z,8.60
2018-12-28T00:22:38.798Z,9.30
2018-12-28T00:23:38.942Z,8.70
2018-12-28T00:24:39.089Z,8.20
2018-12-28T00:25:39.232Z,8.60
2018-12-28T00:26:39.378Z,7.80
2018-12-28T00:27:39.521Z,7.70
2018-12-28T00:28:39.663Z,7.40
2018-12-28T00:29:39.809Z,8.20
2018-12-28T00:30:39.956Z,7.50
2018-12-28T00:31:40.098Z,7.00
2018-12-28T00:32:40.247Z,7.90
2018-12-28T00:33:40.393Z,8.10
2018-12-28T00:34:40.527Z,7.90
2018-12-28T00:35:40.667Z,7.30
2018-12-28T00:36:40.813Z,7.60
2018-12-28T00:37:40.961Z,7.60
2018-12-28T00:38:41.124Z,7.00
2018-12-28T00:39:41.268Z,7.60
2018-12-28T00:40:41.414Z,7.70
2018-12-28T00:41:41.564Z,8.00
2018-12-28T00:42:41.704Z,8.60
2018-12-28T00:43:41.852Z,8.10
2018-12-28T00:44:41.998Z,7.80
2018-12-28T00:45:42.139Z,7.90
2018-12-28T00:46:42.284Z,8.60
2018-12-28T00:47:42.428Z,7.00
2018-12-28T00:48:42.571Z,7.70
2018-12-28T00:49:42.713Z,8.20
2018-12-28T00:50:42.864Z,8.00
2018-12-28T00:51:43.004Z,8.10
2018-12-28T00:52:43.145Z,8.30
2018-12-28T00:53:43.287Z,8.60
2018-12-28T00:54:43.434Z,8.20
2018-12-28T00:55:43.576Z,8.60
2018-12-28T00:56:43.722Z,8.40
2018-12-28T00:57:43.865Z,8.20
2018-12-28T00:58:44.013Z,8.00
2018-12-28T00:59:44.161Z,8.00
2018-12-28T01:00:44.297Z,8.60
2018-12-28T01:01:44.445Z,8.10
2018-12-28T01:02:44.589Z,8.60
2018-12-28T01:03:44.737Z,8.20
2018-12-28T01:04:44.876Z,7.70
2018-12-28T01:05:45.020Z,7.90
2018-12-28T01:06:45.169Z,8.40
2018-12-28T01:07:45.307Z,8.10
2018-12-28T01:08:45.451Z,8.70
2018-12-28T01:09:45.597Z,8.40
2018-12-28T01:10:45.732Z,9.50
2018-12-28T01:11:45.879Z,9.40
2018-12-28T01:12:46.023Z,9.80
2018-12-28T01:13:46.167Z,9.10
2018-12-28T01:14:46.308Z,9.80
2018-12-28T01:15:46.455Z,10.60
2018-12-28T01:16:46.598Z,8.70
2018-12-28T01:17:46.741Z,9.30
2018-12-28T01:18:46.886Z,8.70
2018-12-28T01:19:47.031Z,9.20
2018-12-28T01:20:47.175Z,9.90
2018-12-28T01:21:47.319Z,9.30
2018-12-28T01:22:47.463Z,9.90
2018-12-28T01:23:47.609Z,8.80
2018-12-28T01:24:47.752Z,8.30
2018-12-28T01:25:47.894Z,8.20
2018-12-28T01:26:48.037Z,8.00
2018-12-28T01:27:48.184Z,8.20
2018-12-28T01:28:48.327Z,8.20
2018-12-28T01:29:48.470Z,7.60
2018-12-28T01:30:48.615Z,8.50
2018-12-28T01:31:48.757Z,8.50
2018-12-28T01:32:48.902Z,7.90
2018-12-28T01:33:49.047Z,8.30
2018-12-28T01:34:49.189Z,9.20
2018-12-28T01:35:49.333Z,8.80
2018-12-28T01:36:49.477Z,9.20
2018-12-28T01:37:49.622Z,8.10
2018-12-28T01:38:49.765Z,9.20
2018-12-28T01:39:49.913Z,8.00
2018-12-28T01:40:50.055Z,8.30
2018-12-28T01:41:50.196Z,8.70
2018-12-28T01:42:50.342Z,8.50
2018-12-28T01:43:50.483Z,9.10
2018-12-28T01:44:50.628Z,8.50
2018-12-28T01:45:50.779Z,8.50
2018-12-28T01:46:50.916Z,8.70
2018-12-28T01:47:51.061Z,8.40
2018-12-28T01:48:51.203Z,8.70
2018-12-28T01:49:51.349Z,8.90
2018-12-28T01:50:51.492Z,8.50
2018-12-28T01:51:51.637Z,7.50
2018-12-28T01:52:51.785Z,8.30
2018-12-28T01:53:51.924Z,8.50
2018-12-28T01:54:52.066Z,8.20
2018-12-28T01:55:52.211Z,8.00
2018-12-28T01:56:52.360Z,8.60
2018-12-28T01:57:52.501Z,8.50
2018-12-28T01:58:52.642Z,8.00
2018-12-28T01:59:52.788Z,8.70
2018-12-28T02:00:52.933Z,8.10
2018-12-28T02:01:53.075Z,8.80
2018-12-28T02:02:53.225Z,8.40
2018-12-28T02:03:53.366Z,8.30
2018-12-28T02:04:53.507Z,8.40
2018-12-28T02:05:53.653Z,7.50
2018-12-28T02:06:53.796Z,7.50
2018-12-28T02:07:53.942Z,8.70
2018-12-28T02:08:54.083Z,8.20
2018-12-28T02:09:54.228Z,8.60
2018-12-28T02:10:54.370Z,8.60
2018-12-28T02:11:54.514Z,8.80
2018-12-28T02:12:54.659Z,8.50
2018-12-28T02:13:54.801Z,7.90
2018-12-28T02:14:54.947Z,8.40
2018-12-28T02:15:55.091Z,8.60
2018-12-28T02:16:55.236Z,9.30
2018-12-28T02:17:55.380Z,8.80
2018-12-28T02:18:55.526Z,9.20
2018-12-28T02:19:55.668Z,9.20
2018-12-28T02:20:55.811Z,8.50
2018-12-28T02:21:56.030Z,8.60
2018-12-28T02:22:56.099Z,9.20
2018-12-28T02:23:56.243Z,8.90
2018-12-28T02:24:56.386Z,8.40
2018-12-28T02:25:56.531Z,9.00
2018-12-28T02:26:56.675Z,9.10
2018-12-28T02:27:56.819Z,8.40
2018-12-28T02:28:56.961Z,10.10
2018-12-28T02:29:57.106Z,9.90
2018-12-28T02:30:57.253Z,9.70
2018-12-28T02:31:57.391Z,9.60
2018-12-28T02:32:57.531Z,9.70
2018-12-28T02:33:57.675Z,9.50
2018-12-28T02:34:57.819Z,9.60
2018-12-28T02:35:57.962Z,9.10
2018-12-28T02:36:58.109Z,8.80
2018-12-28T02:37:58.254Z,9.00
2018-12-28T02:38:58.394Z,9.40
2018-12-28T02:39:58.537Z,9.30
2018-12-28T02:40:58.683Z,8.80
2018-12-28T02:41:58.826Z,8.70
2018-12-28T02:42:58.969Z,9.30
2018-12-28T02:43:59.111Z,9.50
2018-12-28T02:44:59.254Z,9.30
2018-12-28T02:45:59.397Z,9.60
2018-12-28T02:46:59.540Z,10.00
2018-12-28T02:47:59.682Z,9.30
2018-12-28T02:48:59.819Z,9.10
2018-12-28T02:49:59.963Z,9.70
2018-12-28T02:51:00.106Z,9.60
2018-12-28T02:52:00.252Z,9.60
2018-12-28T02:53:00.394Z,10.10
2018-12-28T02:54:00.541Z,9.90
2018-12-28T02:55:00.686Z,9.60
2018-12-28T02:56:00.823Z,9.60
2018-12-28T02:57:00.967Z,8.50
2018-12-28T02:58:01.111Z,9.70
2018-12-28T02:59:01.262Z,9.30
2018-12-28T03:00:01.397Z,9.80
2018-12-28T03:01:01.539Z,9.80
2018-12-28T03:02:01.687Z,9.80
2018-12-28T03:03:01.825Z,9.90
2018-12-28T03:04:01.967Z,10.20
2018-12-28T03:05:02.112Z,9.80
2018-12-28T03:06:02.253Z,10.50
2018-12-28T03:07:02.399Z,11.00
2018-12-28T03:08:02.546Z,9.90
2018-12-28T03:09:02.688Z,9.10
2018-12-28T03:10:02.831Z,9.20
2018-12-28T03:11:02.976Z,9.50
2018-12-28T03:12:03.115Z,8.90
2018-12-28T03:13:03.264Z,9.10
2018-12-28T03:14:03.408Z,9.20
2018-12-28T03:15:03.549Z,9.00
2018-12-28T03:16:03.701Z,9.00
2018-12-28T03:17:03.838Z,9.50
2018-12-28T03:18:03.981Z,8.80
2018-12-28T03:19:04.127Z,9.30
2018-12-28T03:20:04.269Z,8.60
2018-12-28T03:21:04.410Z,9.50
2018-12-28T03:22:04.559Z,10.00
2018-12-28T03:23:04.700Z,9.20
2018-12-28T03:24:04.847Z,9.20
2018-12-28T03:25:04.989Z,9.60
2018-12-28T03:26:05.131Z,9.80
2018-12-28T03:27:05.275Z,9.40
2018-12-28T03:28:05.422Z,9.20
2018-12-28T03:29:05.563Z,9.80
2018-12-28T03:30:05.707Z,9.50
2018-12-28T03:31:05.850Z,9.10
2018-12-28T03:32:06.001Z,9.10
2018-12-28T03:33:06.138Z,8.90
2018-12-28T03:34:06.283Z,8.60
2018-12-28T03:35:06.426Z,8.20
2018-12-28T03:36:06.567Z,8.40
2018-12-28T03:37:06.709Z,8.80
2018-12-28T03:38:06.854Z,8.80
2018-12-28T03:39:07.000Z,8.00
2018-12-28T03:40:07.145Z,8.80
2018-12-28T03:41:07.283Z,9.10
2018-12-28T03:42:07.425Z,9.20
2018-12-28T03:43:07.570Z,8.40
2018-12-28T03:44:07.714Z,8.40
2018-12-28T03:45:07.855Z,8.80
2018-12-28T03:46:07.998Z,8.30
2018-12-28T03:47:08.139Z,8.90
2018-12-28T03:48:08.282Z,8.80
2018-12-28T03:49:08.426Z,8.60
2018-12-28T03:50:08.571Z,9.20
2018-12-28T03:51:08.711Z,9.10
2018-12-28T03:52:08.851Z,9.50
2018-12-28T03:53:08.997Z,8.90
2018-12-28T03:54:09.138Z,8.90
2018-12-28T03:55:09.283Z,8.90
2018-12-28T03:56:09.427Z,9.00
2018-12-28T03:57:09.570Z,8.80
2018-12-28T03:58:09.709Z,9.60
2018-12-28T03:59:09.850Z,8.60
2018-12-28T04:00:09.994Z,9.30
2018-12-28T04:01:10.135Z,9.70
2018-12-28T04:02:10.281Z,10.50
2018-12-28T04:03:10.423Z,10.40
2018-12-28T04:04:10.566Z,10.10
2018-12-28T04:05:10.712Z,10.20
2018-12-28T04:06:10.850Z,11.00
2018-12-28T04:07:10.992Z,10.70
2018-12-28T04:08:11.134Z,10.80
2018-12-28T04:09:11.280Z,9.50
2018-12-28T04:10:11.426Z,9.50
2018-12-28T04:11:11.565Z,8.60
2018-12-28T04:12:11.708Z,8.30
2018-12-28T04:13:11.849Z,9.00
2018-12-28T04:14:11.996Z,8.20
2018-12-28T04:15:12.142Z,8.60
2018-12-28T04:16:12.282Z,8.60
2018-12-28T04:17:12.426Z,8.50
2018-12-28T04:18:12.566Z,8.70
2018-12-28T04:19:12.712Z,9.20
2018-12-28T04:20:12.853Z,8.90
2018-12-28T04:21:12.996Z,8.80
2018-12-28T04:22:13.146Z,8.60
2018-12-28T04:23:13.290Z,8.50
2018-12-28T04:24:13.431Z,9.10
2018-12-28T04:25:13.578Z,9.20
2018-12-28T04:26:13.723Z,8.80
2018-12-28T04:27:13.862Z,9.10
2018-12-28T04:28:14.004Z,9.70
2018-12-28T04:29:14.146Z,9.30
2018-12-28T04:30:14.289Z,8.60
2018-12-28T04:31:14.430Z,9.50
2018-12-28T04:32:14.573Z,9.50
2018-12-28T04:33:14.720Z,10.60
2018-12-28T04:34:14.861Z,9.40
2018-12-28T04:35:15.005Z,10.10
2018-12-28T04:36:15.150Z,9.60
2018-12-28T04:37:15.288Z,10.10
2018-12-28T04:38:15.435Z,9.80
2018-12-28T04:39:15.573Z,10.00
2018-12-28T04:40:15.717Z,9.50
2018-12-28T04:41:15.857Z,9.50
2018-12-28T04:42:15.992Z,9.50
2018-12-28T04:43:16.135Z,9.50
2018-12-28T04:44:16.281Z,9.80
2018-12-28T04:45:16.423Z,9.20
2018-12-28T04:46:16.566Z,9.60
2018-12-28T04:47:16.712Z,9.50
2018-12-28T04:48:16.851Z,9.40
2018-12-28T04:49:16.995Z,9.50
2018-12-28T04:50:17.142Z,9.30
2018-12-28T04:51:17.279Z,9.70
2018-12-28T04:52:17.428Z,8.50
2018-12-28T04:53:17.569Z,8.60
2018-12-28T04:54:17.706Z,8.20
2018-12-28T04:55:17.848Z,7.80
2018-12-28T04:56:18.002Z,7.30
2018-12-28T04:57:18.132Z,8.10
2018-12-28T04:58:18.276Z,7.60
2018-12-28T04:59:18.417Z,7.30
2018-12-28T05:00:18.567Z,8.10
2018-12-28T05:01:18.706Z,7.40
2018-12-28T05:02:18.852Z,8.10
2018-12-28T05:03:18.991Z,7.40
2018-12-28T05:04:19.131Z,7.20
2018-12-28T05:05:19.276Z,7.40
2018-12-28T05:06:19.420Z,8.40
2018-12-28T05:07:19.571Z,8.50
2018-12-28T05:08:19.711Z,9.20
2018-12-28T05:09:19.846Z,9.00
2018-12-28T05:10:19.991Z,9.20
2018-12-28T05:11:20.137Z,9.80
2018-12-28T05:12:20.275Z,9.50
2018-12-28T05:13:20.416Z,9.70
2018-12-28T05:14:20.557Z,9.50
2018-12-28T05:15:20.702Z,10.00
2018-12-28T05:16:20.846Z,10.10
2018-12-28T05:17:20.985Z,10.60
2018-12-28T05:18:21.130Z,11.00
2018-12-28T05:19:21.272Z,12.90
2018-12-28T05:20:21.416Z,13.40
2018-12-28T05:21:21.559Z,14.80
2018-12-28T05:22:21.700Z,13.90
2018-12-28T05:23:21.843Z,10.30
2018-12-28T05:24:21.984Z,10.20
2018-12-28T05:25:22.127Z,9.60
2018-12-28T05:26:22.270Z,11.60
2018-12-28T05:27:22.411Z,14.90
2018-12-28T05:28:22.553Z,15.20
2018-12-28T05:29:22.696Z,16.50
2018-12-28T05:30:22.840Z,15.00
2018-12-28T05:31:22.983Z,15.30
2018-12-28T05:32:23.126Z,14.60
2018-12-28T05:33:23.271Z,13.40
2018-12-28T05:34:23.415Z,11.20
2018-12-28T05:35:23.556Z,10.70
2018-12-28T05:36:23.698Z,10.20
2018-12-28T05:37:23.841Z,9.10
2018-12-28T05:38:23.986Z,10.50
2018-12-28T05:39:24.127Z,10.70
2018-12-28T05:40:26.017Z,9.70
2018-12-28T05:41:24.416Z,10.70
2018-12-28T05:42:24.555Z,9.60
2018-12-28T05:43:24.700Z,10.80
2018-12-28T05:44:24.841Z,10.40
2018-12-28T05:45:24.984Z,10.30
2018-12-28T05:46:25.128Z,9.40
2018-12-28T05:47:25.267Z,9.70
2018-12-28T05:48:25.412Z,10.60
2018-12-28T05:49:25.556Z,10.60
2018-12-28T05:50:25.699Z,11.00
2018-12-28T05:51:25.839Z,10.00
2018-12-28T05:52:25.982Z,10.30
2018-12-28T05:53:26.125Z,10.00
2018-12-28T05:54:26.268Z,9.20
2018-12-28T05:55:26.410Z,10.60
2018-12-28T05:56:26.555Z,9.90
2018-12-28T05:57:26.699Z,9.60
2018-12-28T05:58:26.841Z,10.10
2018-12-28T05:59:26.985Z,10.70
2018-12-28T06:00:27.133Z,10.50
2018-12-28T06:01:27.264Z,10.40
2018-12-28T06:02:27.406Z,10.30
2018-12-28T06:03:27.552Z,10.80
2018-12-28T06:04:27.690Z,10.00
2018-12-28T06:05:27.833Z,9.90
2018-12-28T06:06:27.972Z,10.00
2018-12-28T06:07:28.120Z,10.20
2018-12-28T06:08:28.260Z,9.20
2018-12-28T06:09:28.406Z,9.10
2018-12-28T06:10:32.892Z,9.70
2018-12-28T06:11:28.693Z,9.10
2018-12-28T06:12:28.833Z,9.10
2018-12-28T06:13:28.974Z,9.10
2018-12-28T06:14:29.118Z,9.10
2018-12-28T06:15:29.258Z,9.50
2018-12-28T06:16:29.401Z,10.20
2018-12-28T06:17:29.544Z,9.50
2018-12-28T06:18:29.689Z,9.20
2018-12-28T06:19:29.818Z,10.00
2018-12-28T06:20:29.963Z,9.70
2018-12-28T06:21:30.104Z,10.20
2018-12-28T06:22:30.253Z,9.40
2018-12-28T06:23:30.388Z,10.00
2018-12-28T06:24:30.532Z,9.70
2018-12-28T06:25:30.673Z,9.70
2018-12-28T06:26:30.816Z,9.90
2018-12-28T06:27:30.956Z,9.20
2018-12-28T06:28:31.101Z,9.90
2018-12-28T06:29:31.248Z,9.20
2018-12-28T06:30:31.388Z,9.30
2018-12-28T06:31:31.530Z,10.90
2018-12-28T06:32:31.673Z,10.50
2018-12-28T06:33:31.812Z,10.10
2018-12-28T06:34:31.954Z,10.80
2018-12-28T06:35:32.095Z,10.90
2018-12-28T06:36:32.239Z,11.20
2018-12-28T06:37:32.382Z,12.30
2018-12-28T06:38:32.526Z,11.80
2018-12-28T06:39:32.666Z,11.90
2018-12-28T06:40:39.865Z,12.10
2018-12-28T06:41:32.949Z,12.40
2018-12-28T06:42:33.092Z,11.60
2018-12-28T06:43:33.233Z,11.20
2018-12-28T06:44:33.376Z,10.50
2018-12-28T06:45:33.516Z,10.80
2018-12-28T06:46:33.661Z,11.50
2018-12-28T06:47:33.810Z,11.60
2018-12-28T06:48:33.949Z,11.40
2018-12-28T06:49:34.090Z,12.40
2018-12-28T06:50:34.235Z,12.00
2018-12-28T06:51:34.378Z,11.10
2018-12-28T06:52:34.521Z,10.80
2018-12-28T06:53:34.720Z,10.40
2018-12-28T06:54:34.810Z,10.80
2018-12-28T06:55:34.948Z,11.30
2018-12-28T06:56:35.091Z,10.70
2018-12-28T06:57:35.236Z,11.20
2018-12-28T06:58:35.374Z,11.10
2018-12-28T06:59:35.516Z,11.20
2018-12-28T07:00:35.658Z,11.80
2018-12-28T07:01:35.802Z,11.10
2018-12-28T07:02:35.950Z,10.50
2018-12-28T07:03:36.090Z,11.30
2018-12-28T07:04:36.231Z,12.70
2018-12-28T07:05:36.375Z,11.60
2018-12-28T07:06:36.518Z,11.40
2018-12-28T07:07:36.662Z,11.30
2018-12-28T07:08:36.804Z,11.10
2018-12-28T07:09:36.945Z,10.90
2018-12-28T07:10:37.089Z,10.30
2018-12-28T07:11:37.230Z,10.80
2018-12-28T07:12:37.374Z,10.90
2018-12-28T07:13:37.516Z,11.00
2018-12-28T07:14:37.659Z,11.60
2018-12-28T07:15:37.801Z,10.60
2018-12-28T07:16:37.944Z,11.10
2018-12-28T07:17:38.085Z,10.40
2018-12-28T07:18:38.228Z,11.20
2018-12-28T07:19:38.369Z,10.40
2018-12-28T07:20:38.514Z,11.50
2018-12-28T07:21:38.657Z,10.80
2018-12-28T07:22:38.800Z,10.90
2018-12-28T07:23:38.941Z,10.80
2018-12-28T07:24:39.086Z,10.40
2018-12-28T07:25:39.226Z,10.90
2018-12-28T07:26:39.373Z,11.00
2018-12-28T07:27:39.513Z,10.90
2018-12-28T07:28:39.656Z,11.10
2018-12-28T07:29:39.806Z,10.00
2018-12-28T07:30:39.977Z,11.30
2018-12-28T07:31:40.089Z,11.00
2018-12-28T07:32:40.233Z,10.70
2018-12-28T07:33:40.377Z,11.60
2018-12-28T07:34:40.523Z,10.50
2018-12-28T07:35:40.665Z,10.40
2018-12-28T07:36:40.807Z,11.10
2018-12-28T07:37:40.952Z,11.30
2018-12-28T07:38:41.092Z,11.40
2018-12-28T07:39:41.237Z,11.60
2018-12-28T07:40:41.380Z,11.90
2018-12-28T07:41:41.523Z,12.10
2018-12-28T07:42:41.664Z,11.90
2018-12-28T07:43:41.809Z,12.30
2018-12-28T07:44:41.952Z,12.30
2018-12-28T07:45:42.095Z,12.30
2018-12-28T07:46:42.239Z,12.40
2018-12-28T07:47:42.384Z,11.40
2018-12-28T07:48:42.526Z,11.40
2018-12-28T07:49:42.671Z,11.40
2018-12-28T07:50:42.813Z,11.20
2018-12-28T07:51:42.958Z,11.30
2018-12-28T07:52:43.100Z,11.40
2018-12-28T07:53:43.242Z,10.90
2018-12-28T07:54:43.389Z,11.90
2018-12-28T07:55:43.529Z,10.90
2018-12-28T07:56:43.673Z,11.10
2018-12-28T07:57:43.816Z,10.60
2018-12-28T07:58:43.961Z,10.60
2018-12-28T07:59:44.103Z,10.40
2018-12-28T08:00:44.245Z,10.80
2018-12-28T08:01:44.387Z,10.40
2018-12-28T08:02:44.532Z,9.80
2018-12-28T08:03:44.675Z,9.90
2018-12-28T08:04:44.818Z,9.50
2018-12-28T08:05:44.964Z,10.50
2018-12-28T08:06:45.105Z,10.80
2018-12-28T08:07:45.249Z,10.20
2018-12-28T08:08:45.391Z,10.80
2018-12-28T08:09:45.535Z,10.70
2018-12-28T08:10:45.678Z,10.90
2018-12-28T08:11:45.820Z,11.00
2018-12-28T08:12:45.963Z,10.50
2018-12-28T08:13:46.106Z,10.60
2018-12-28T08:14:46.247Z,11.10
2018-12-28T08:15:46.399Z,10.70
2018-12-28T08:16:46.536Z,11.40
2018-12-28T08:17:46.679Z,11.20
2018-12-28T08:18:46.823Z,11.90
2018-12-28T08:19:46.970Z,12.40
2018-12-28T08:20:47.113Z,11.50
2018-12-28T08:21:47.255Z,11.40
2018-12-28T08:22:47.399Z,10.70
2018-12-28T08:23:47.546Z,10.60
2018-12-28T08:24:47.688Z,11.30
2018-12-28T08:25:47.830Z,10.40
2018-12-28T08:26:47.977Z,11.20
2018-12-28T08:27:48.118Z,11.60
2018-12-28T08:28:48.320Z,12.00
2018-12-28T08:29:48.410Z,11.70
2018-12-28T08:30:48.552Z,11.20
2018-12-28T08:31:48.694Z,11.70
2018-12-28T08:32:48.844Z,11.00
2018-12-28T08:33:48.982Z,11.20
2018-12-28T08:34:50.588Z,11.50
2018-12-28T08:35:49.268Z,12.00
2018-12-28T08:36:49.413Z,11.80
2018-12-28T08:37:49.557Z,11.60
2018-12-28T08:38:49.700Z,11.50
2018-12-28T08:39:49.845Z,10.60
2018-12-28T08:40:49.990Z,10.50
2018-12-28T08:41:50.133Z,10.20
2018-12-28T08:42:51.600Z,10.00
2018-12-28T08:43:50.419Z,10.00
2018-12-28T08:44:50.562Z,9.10
2018-12-28T08:45:50.705Z,9.20
2018-12-28T08:46:50.848Z,9.40
2018-12-28T08:47:50.991Z,10.50
2018-12-28T08:48:51.135Z,10.00
2018-12-28T08:49:51.279Z,10.70
2018-12-28T08:50:51.428Z,11.20
2018-12-28T08:51:51.567Z,11.50
2018-12-28T08:52:51.714Z,10.60
2018-12-28T08:53:51.857Z,10.30
2018-12-28T08:54:52.002Z,11.50
2018-12-28T08:55:52.146Z,11.00
2018-12-28T08:56:52.294Z,11.10
2018-12-28T08:57:52.437Z,12.10
2018-12-28T08:58:52.586Z,12.30
2018-12-28T08:59:52.725Z,12.20
2018-12-28T09:00:52.869Z,13.00
2018-12-28T09:01:53.013Z,11.50
2018-12-28T09:02:53.159Z,12.20
2018-12-28T09:03:53.300Z,10.90
2018-12-28T09:04:53.443Z,11.40
2018-12-28T09:05:53.590Z,10.50
2018-12-28T09:06:53.732Z,11.40
2018-12-28T09:07:53.876Z,11.00
2018-12-28T09:08:54.021Z,11.50
2018-12-28T09:09:54.163Z,11.70
2018-12-28T09:10:54.317Z,11.70
2018-12-28T09:11:54.461Z,11.20
2018-12-28T09:12:54.605Z,11.60
2018-12-28T09:13:54.751Z,11.50
2018-12-28T09:14:54.892Z,11.00
2018-12-28T09:15:55.037Z,11.70
2018-12-28T09:16:55.182Z,13.30
2018-12-28T09:17:55.331Z,12.40
2018-12-28T09:18:55.469Z,13.20
2018-12-28T09:19:55.615Z,13.60
2018-12-28T09:20:55.758Z,15.70
2018-12-28T09:21:55.905Z,15.30
2018-12-28T09:22:56.049Z,15.40
2018-12-28T09:23:56.194Z,19.00
2018-12-28T09:24:56.354Z,17.40
2018-12-28T09:25:56.482Z,16.90
2018-12-28T09:26:56.627Z,16.50
2018-12-28T09:27:56.772Z,15.70
2018-12-28T09:28:56.914Z,12.70
2018-12-28T09:29:57.058Z,12.20
2018-12-28T09:30:57.205Z,12.10
2018-12-28T09:31:57.349Z,12.00
2018-12-28T09:32:57.491Z,11.10
2018-12-28T09:33:57.643Z,11.20
2018-12-28T09:34:57.782Z,10.80
2018-12-28T09:35:57.927Z,9.90
2018-12-28T09:36:58.072Z,9.80
2018-12-28T09:37:58.216Z,9.70
2018-12-28T09:38:58.363Z,9.20
2018-12-28T09:39:58.513Z,9.40
2018-12-28T09:40:58.653Z,9.60
2018-12-28T09:41:58.801Z,9.90
2018-12-28T09:42:58.945Z,10.40
2018-12-28T09:43:59.099Z,9.60
2018-12-28T09:44:59.242Z,9.90
2018-12-28T09:45:59.388Z,9.60
2018-12-28T09:46:59.531Z,10.10
2018-12-28T09:47:59.675Z,11.50
2018-12-28T09:48:59.821Z,10.60
2018-12-28T09:50:00.324Z,10.50
2018-12-28T09:51:00.109Z,10.00
2018-12-28T09:52:00.257Z,10.80
2018-12-28T09:53:00.398Z,11.00
2018-12-28T09:54:00.563Z,10.70
2018-12-28T09:55:00.709Z,9.80
2018-12-28T09:56:00.855Z,10.00
2018-12-28T09:57:01.004Z,9.90
2018-12-28T09:58:01.146Z,9.60
2018-12-28T09:59:01.290Z,9.70
2018-12-28T10:00:01.435Z,9.20
2018-12-28T10:01:01.582Z,8.80
2018-12-28T10:02:01.728Z,9.20
2018-12-28T10:03:01.877Z,9.10
2018-12-28T10:04:02.020Z,9.10
2018-12-28T10:05:02.168Z,9.90
2018-12-28T10:06:02.310Z,9.20
2018-12-28T10:07:02.453Z,9.70
2018-12-28T10:08:02.599Z,9.50
2018-12-28T10:09:02.783Z,9.80
2018-12-28T10:10:02.898Z,9.90
2018-12-28T10:11:03.040Z,10.10
2018-12-28T10:12:03.192Z,9.80
2018-12-28T10:13:03.340Z,10.50
2018-12-28T10:14:03.479Z,9.80
2018-12-28T10:15:03.625Z,9.20
2018-12-28T10:16:03.770Z,10.00
2018-12-28T10:17:03.914Z,9.40
2018-12-28T10:18:04.058Z,9.30
2018-12-28T10:19:04.206Z,10.30
2018-12-28T10:20:04.348Z,9.40
2018-12-28T10:21:04.493Z,9.40
2018-12-28T10:22:04.638Z,10.50
2018-12-28T10:23:04.784Z,9.20
2018-12-28T10:24:04.927Z,9.90
2018-12-28T10:25:05.071Z,9.60
2018-12-28T10:26:05.214Z,9.70
2018-12-28T10:27:05.362Z,10.00
2018-12-28T10:28:05.505Z,9.70
2018-12-28T10:29:05.654Z,9.50
2018-12-28T10:30:05.795Z,9.60
2018-12-28T10:31:05.939Z,10.50
2018-12-28T10:32:06.085Z,10.70
2018-12-28T10:33:06.234Z,10.70
2018-12-28T10:34:06.380Z,9.80
2018-12-28T10:35:06.527Z,9.30
2018-12-28T10:36:06.671Z,9.70
2018-12-28T10:37:06.816Z,10.30
2018-12-28T10:38:06.961Z,9.20
2018-12-28T10:39:07.109Z,9.80
2018-12-28T10:40:07.254Z,9.70
2018-12-28T10:41:07.397Z,10.40
2018-12-28T10:42:07.546Z,9.70
2018-12-28T10:43:07.693Z,9.70
2018-12-28T10:44:07.834Z,9.80
2018-12-28T10:45:07.981Z,9.70
2018-12-28T10:46:08.125Z,9.70
2018-12-28T10:47:08.269Z,9.60
2018-12-28T10:48:08.423Z,9.20
2018-12-28T10:49:08.565Z,9.90
2018-12-28T10:50:08.712Z,9.10
2018-12-28T10:51:08.856Z,8.80
2018-12-28T10:52:08.999Z,9.10
2018-12-28T10:53:09.146Z,9.60
2018-12-28T10:54:09.289Z,8.90
2018-12-28T10:55:09.436Z,9.90
2018-12-28T10:56:09.579Z,9.50
2018-12-28T10:57:09.725Z,9.30
2018-12-28T10:58:09.869Z,9.40
2018-12-28T10:59:10.013Z,9.20
2018-12-28T11:00:10.161Z,9.20
2018-12-28T11:01:10.308Z,10.00
2018-12-28T11:02:10.451Z,10.30
2018-12-28T11:03:10.598Z,9.80
2018-12-28T11:04:10.742Z,10.00
2018-12-28T11:05:11.060Z,10.10
2018-12-28T11:06:11.040Z,9.20
2018-12-28T11:07:11.187Z,9.90
2018-12-28T11:08:11.343Z,9.80
2018-12-28T11:09:11.488Z,10.10
2018-12-28T11:10:11.637Z,9.90
2018-12-28T11:11:11.781Z,9.60
2018-12-28T11:12:11.927Z,9.40
2018-12-28T11:13:12.073Z,10.10
2018-12-28T11:14:12.219Z,9.20
2018-12-28T11:15:12.360Z,9.60
2018-12-28T11:16:12.509Z,10.00
2018-12-28T11:17:12.651Z,9.40
2018-12-28T11:18:12.812Z,9.80
2018-12-28T11:19:12.956Z,9.20
2018-12-28T11:20:13.101Z,9.80
2018-12-28T11:21:13.247Z,10.50
2018-12-28T11:22:13.389Z,10.40
2018-12-28T11:23:13.532Z,10.90
2018-12-28T11:24:13.676Z,10.90
2018-12-28T11:25:13.821Z,9.20
2018-12-28T11:26:13.967Z,8.70
2018-12-28T11:27:14.109Z,9.60
2018-12-28T11:28:14.262Z,9.30
2018-12-28T11:29:14.411Z,9.70
2018-12-28T11:30:14.557Z,9.90
2018-12-28T11:31:14.705Z,10.00
2018-12-28T11:32:14.849Z,9.60
2018-12-28T11:33:14.996Z,8.90
2018-12-28T11:34:15.143Z,9.00
2018-12-28T11:35:15.290Z,9.00
2018-12-28T11:36:15.435Z,9.20
2018-12-28T11:37:15.580Z,9.40
2018-12-28T11:38:15.724Z,9.30
2018-12-28T11:39:15.867Z,9.40
2018-12-28T11:40:16.014Z,9.00
2018-12-28T11:41:16.159Z,9.90
2018-12-28T11:42:16.311Z,10.30
2018-12-28T11:43:16.454Z,10.10
2018-12-28T11:44:16.595Z,9.90
2018-12-28T11:45:16.744Z,9.50
2018-12-28T11:46:16.887Z,9.80
2018-12-28T11:47:17.036Z,9.40
2018-12-28T11:48:17.179Z,10.40
2018-12-28T11:49:17.325Z,10.80
2018-12-28T11:50:17.471Z,9.80
2018-12-28T11:51:17.624Z,10.30
2018-12-28T11:52:17.765Z,9.50
2018-12-28T11:53:17.911Z,8.80
2018-12-28T11:54:18.059Z,8.40
2018-12-28T11:55:18.207Z,9.20
2018-12-28T11:56:18.353Z,9.20
2018-12-28T11:57:18.500Z,9.40
2018-12-28T11:58:18.648Z,9.50
2018-12-28T11:59:18.800Z,9.30
2018-12-28T12:00:18.940Z,9.70
2018-12-28T12:01:19.088Z,9.00
2018-12-28T12:02:19.236Z,9.70
2018-12-28T12:03:19.382Z,8.80
2018-12-28T12:04:19.539Z,9.90
2018-12-28T12:05:20.162Z,9.70
2018-12-28T12:06:19.828Z,9.70
2018-12-28T12:07:19.976Z,10.10
2018-12-28T12:08:20.122Z,10.10
2018-12-28T12:09:20.270Z,9.40
2018-12-28T12:10:20.420Z,10.10
2018-12-28T12:11:20.580Z,9.90
2018-12-28T12:12:20.725Z,10.70
2018-12-28T12:13:20.895Z,10.70
2018-12-28T12:14:21.049Z,9.70
2018-12-28T12:15:21.201Z,9.70
2018-12-28T12:16:21.352Z,9.90
2018-12-28T12:17:21.499Z,10.40
2018-12-28T12:18:21.650Z,9.90
2018-12-28T12:19:21.801Z,10.40
2018-12-28T12:20:21.956Z,10.50
2018-12-28T12:21:22.102Z,10.40
2018-12-28T12:22:22.256Z,9.30
2018-12-28T12:23:22.405Z,9.60
2018-12-28T12:24:22.557Z,10.10
2018-12-28T12:25:22.711Z,9.70
2018-12-28T12:26:22.863Z,9.40
2018-12-28T12:27:23.014Z,9.00
2018-12-28T12:28:23.164Z,9.30
2018-12-28T12:29:23.317Z,9.00
2018-12-28T12:30:23.470Z,8.90
2018-12-28T12:31:23.621Z,9.60
2018-12-28T12:32:23.772Z,9.40
2018-12-28T12:33:23.926Z,9.50
2018-12-28T12:34:24.075Z,9.80
2018-12-28T12:35:24.232Z,9.60
2018-12-28T12:36:24.378Z,9.70
2018-12-28T12:37:24.534Z,10.00
2018-12-28T12:38:24.689Z,10.10
2018-12-28T12:39:24.838Z,9.60
2018-12-28T12:40:24.991Z,9.20
2018-12-28T12:41:25.143Z,10.60
2018-12-28T12:42:25.296Z,10.50
2018-12-28T12:43:25.704Z,11.10
2018-12-28T12:44:25.599Z,9.40
2018-12-28T12:45:25.751Z,10.10
2018-12-28T12:46:25.903Z,10.10
2018-12-28T12:47:26.054Z,11.40
2018-12-28T12:48:26.204Z,10.70
2018-12-28T12:49:26.354Z,10.00
2018-12-28T12:50:26.514Z,10.00
2018-12-28T12:51:26.662Z,10.60
2018-12-28T12:52:26.811Z,9.50
2018-12-28T12:53:26.963Z,10.30
2018-12-28T12:54:27.114Z,9.50
2018-12-28T12:55:27.263Z,10.80
2018-12-28T12:56:27.412Z,10.60
2018-12-28T12:57:29.285Z,9.90
2018-12-28T12:58:27.707Z,10.50
2018-12-28T12:59:27.857Z,11.00
2018-12-28T13:00:28.004Z,10.40
2018-12-28T13:01:28.160Z,10.50
2018-12-28T13:02:28.307Z,10.60
2018-12-28T13:03:28.458Z,10.80
2018-12-28T13:04:28.608Z,10.80
2018-12-28T13:05:28.756Z,11.00
2018-12-28T13:06:28.900Z,10.90
2018-12-28T13:07:29.048Z,10.90
2018-12-28T13:08:29.198Z,10.70
2018-12-28T13:09:29.348Z,11.50